NCAR-RAP Real-Time Weather Data

Output produced by METARs form (12 May 2021  11:23 UTC)
found at http://weather.rap.ucar.edu/surface/
 
KMHE 121053Z AUTO 16007KT 10SM CLR 03/M02 A3037 RMK AO2 SLP288 T00281017
KMHE 120953Z AUTO 16006KT 10SM CLR 03/M02 A3036 RMK AO2 SLP286 T00331017
KMHE 120853Z AUTO 12005KT 10SM CLR 03/M02 A3036 RMK AO2 SLP285 T00331022 56002
KMHE 120753Z AUTO 17005KT 10SM CLR 04/M02 A3036 RMK AO2 SLP285 T00441017
KMHE 120653Z AUTO 14004KT 10SM CLR 04/M02 A3036 RMK AO2 SLP287 T00441017
KMHE 120553Z AUTO 19004KT 10SM CLR 08/M02 A3036 RMK AO2 SLP286 T00781017 10161 20061 401721006 51005
KMHE 120453Z AUTO 16004KT 10SM CLR 10/M04 A3036 RMK AO2 SLP283 T01001039
KMHE 120353Z AUTO 13003KT 10SM CLR 11/M04 A3036 RMK AO2 SLP284 T01061039
KMHE 120253Z AUTO 00000KT 10SM CLR 12/M03 A3035 RMK AO2 SLP280 T01171033 53012
KMHE 120153Z AUTO 10003KT 10SM CLR 13/M04 A3033 RMK AO2 SLP274 T01331039
KMHE 120053Z AUTO 09004KT 10SM CLR 16/M04 A3031 RMK AO2 SLP271 T01561039
KMHE 112353Z AUTO 10006KT 10SM CLR 16/M07 A3031 RMK AO2 SLP271 T01611067 10172 20139 55003
KMHE 112253Z AUTO 10SM CLR 17/M06 A3031 RMK AO2 SLP269 T01671061
KMHE 112153Z AUTO 10SM CLR 16/M06 A3031 RMK AO2 SLP270 T01611056
KMHE 112053Z AUTO 00000KT 10SM CLR 17/M04 A3032 RMK AO2 SLP272 T01671044 55011